Time;durP1;ratioP1;P1;durP2;ratioP2;P2;SDS_P1;SDS_P2;PMS_P1;PMS_P2;Temp;Humidity;BMP_temperature;BMP_pressure;BME280_temperature;BME280_humidity;BME280_pressure;Samples;Min_cycle;Max_cycle;Signal;HPM_P1;HPM_P2
2022/04/06 00:00:52;;;;;;;26.50;22.13;;;9.20;99.90;;;;;;5051391;28;20399;-82
2022/04/06 00:03:18;;;;;;;26.83;21.77;;;9.20;99.90;;;;;;5051652;28;20391;-83
2022/04/06 00:05:44;;;;;;;25.80;21.20;;;9.30;99.90;;;;;;5052767;28;20806;-83
2022/04/06 00:08:10;;;;;;;26.20;21.38;;;9.30;99.90;;;;;;5052784;28;20387;-82
2022/04/06 00:10:36;;;;;;;23.20;19.17;;;9.30;99.90;;;;;;5052476;28;20442;-82
2022/04/06 00:13:02;;;;;;;23.33;19.50;;;9.30;99.90;;;;;;5052320;28;20422;-82
2022/04/06 00:15:29;;;;;;;24.45;20.30;;;9.40;99.90;;;;;;5050666;28;20384;-82
2022/04/06 00:17:54;;;;;;;22.83;18.83;;;9.40;99.90;;;;;;5050816;28;20407;-82
2022/04/06 00:20:20;;;;;;;24.60;19.60;;;9.50;99.90;;;;;;5051046;28;20825;-84
2022/04/06 00:22:46;;;;;;;27.42;19.90;;;9.50;99.90;;;;;;5050755;28;20380;-82
2022/04/06 00:25:12;;;;;;;24.35;19.98;;;9.60;99.90;;;;;;5050699;28;20502;-82
2022/04/06 00:27:38;;;;;;;23.40;18.37;;;9.40;99.90;;;;;;5051532;28;20912;-82
2022/04/06 00:30:05;;;;;;;24.02;19.83;;;9.50;99.90;;;;;;5051720;28;20393;-82
2022/04/06 00:32:30;;;;;;;24.60;20.70;;;9.50;99.90;;;;;;5051709;28;20380;-83
2022/04/06 00:37:40;;;;;;;28.48;22.98;;;9.50;99.90;;;;;;5052440;28;20447;-82
2022/04/06 00:40:09;;;;;;;28.33;24.10;;;9.50;99.90;;;;;;5052393;28;20867;-82
2022/04/06 00:42:35;;;;;;;30.45;23.77;;;9.50;99.90;;;;;;5050449;28;20396;-83
2022/04/06 00:45:01;;;;;;;30.38;24.40;;;9.50;99.90;;;;;;5051084;28;20411;-82
2022/04/06 00:47:26;;;;;;;29.27;24.42;;;9.60;99.90;;;;;;5049777;28;20958;-83
2022/04/06 00:49:52;;;;;;;28.35;23.48;;;9.60;99.90;;;;;;5051505;28;20379;-81
2022/04/06 00:52:19;;;;;;;31.33;25.53;;;9.50;99.90;;;;;;5051243;28;20406;-83
2022/04/06 00:54:47;;;;;;;29.90;23.97;;;9.50;99.90;;;;;;5051077;28;20443;-82
2022/04/06 00:57:13;;;;;;;31.20;24.93;;;9.60;99.90;;;;;;5049651;28;20418;-82
2022/04/06 00:59:41;;;;;;;30.38;24.70;;;9.50;99.90;;;;;;5049877;28;20514;-82
2022/04/06 01:02:07;;;;;;;30.70;24.73;;;9.40;99.90;;;;;;5051791;28;20384;-83
2022/04/06 01:04:33;;;;;;;28.95;23.95;;;9.40;99.90;;;;;;5050985;28;20754;-81
2022/04/06 01:06:59;;;;;;;29.85;24.85;;;9.50;99.90;;;;;;5051213;28;20380;-82
2022/04/06 01:09:25;;;;;;;30.35;24.60;;;9.60;99.90;;;;;;5049796;28;20462;-82
2022/04/06 01:11:54;;;;;;;29.27;23.95;;;9.50;99.90;;;;;;5052667;28;20513;-82
2022/04/06 01:14:20;;;;;;;28.63;24.08;;;9.40;99.90;;;;;;5050774;28;20392;-83
2022/04/06 01:17:02;;;;;;;29.40;24.23;;;9.40;99.90;;;;;;5051685;28;20378;-83
2022/04/06 01:19:43;;;;;;;28.35;23.65;;;9.40;99.90;;;;;;5051389;28;20422;-82
2022/04/06 01:22:14;;;;;;;29.30;23.77;;;9.40;99.90;;;;;;5051028;28;20380;-83
2022/04/06 01:24:40;;;;;;;25.58;22.02;;;9.50;99.90;;;;;;5049734;28;20407;-82
2022/04/06 01:27:06;;;;;;;25.87;22.37;;;9.40;99.90;;;;;;5051146;28;20379;-82
2022/04/06 01:29:33;;;;;;;26.40;22.25;;;9.60;99.90;;;;;;5050958;28;20398;-81
2022/04/06 01:32:13;;;;;;;26.95;23.15;;;9.60;99.90;;;;;;5050614;28;20407;-82
2022/04/06 01:34:40;;;;;;;27.88;23.00;;;9.50;99.90;;;;;;5050938;28;20372;-82
2022/04/06 01:37:07;;;;;;;28.33;23.37;;;9.50;99.90;;;;;;5049728;28;20547;-82
2022/04/06 01:39:34;;;;;;;28.80;24.02;;;9.60;99.90;;;;;;5049623;28;20371;-83
2022/04/06 01:42:01;;;;;;;28.50;23.73;;;9.50;99.90;;;;;;5050956;28;20962;-82
2022/04/06 01:44:28;;;;;;;28.85;24.17;;;9.50;99.90;;;;;;5050387;28;20415;-83
2022/04/06 01:46:54;;;;;;;29.55;23.95;;;9.50;99.90;;;;;;5050558;28;20371;-83
2022/04/06 01:52:13;;;;;;;29.30;24.35;;;9.50;99.90;;;;;;5050882;28;20383;-83
2022/04/06 01:54:57;;;;;;;27.42;23.85;;;9.40;99.90;;;;;;5050511;28;20380;-83
2022/04/06 01:57:23;;;;;;;27.70;23.65;;;9.50;99.90;;;;;;5051248;28;20402;-83
2022/04/06 01:59:49;;;;;;;28.73;24.55;;;9.40;99.90;;;;;;5049553;28;20422;-82
2022/04/06 02:02:17;;;;;;;29.10;24.47;;;9.40;99.90;;;;;;5050569;28;20419;-82
2022/04/06 02:04:44;;;;;;;30.83;24.55;;;9.40;99.90;;;;;;5050138;28;20407;-82
2022/04/06 02:07:10;;;;;;;27.90;24.42;;;9.40;99.90;;;;;;5051488;28;20520;-83
2022/04/06 02:09:37;;;;;;;28.20;24.73;;;9.40;99.90;;;;;;5050725;28;20368;-85
2022/04/06 02:12:03;;;;;;;28.13;24.70;;;9.40;99.90;;;;;;5049089;28;20841;-82
2022/04/06 02:14:29;;;;;;;27.45;23.73;;;9.40;99.90;;;;;;5048988;28;20894;-82
2022/04/06 02:16:54;;;;;;;28.87;24.43;;;9.30;99.90;;;;;;5051126;28;20380;-82
2022/04/06 02:19:21;;;;;;;27.57;23.40;;;9.40;99.90;;;;;;5050323;28;20580;-83
2022/04/06 02:21:46;;;;;;;26.03;23.17;;;9.40;99.90;;;;;;5049714;28;20383;-83
2022/04/06 02:24:12;;;;;;;26.50;22.87;;;9.50;99.90;;;;;;5051580;28;20730;-82
2022/04/06 02:26:38;;;;;;;25.83;23.10;;;9.50;99.90;;;;;;5051551;28;20410;-82
2022/04/06 02:29:03;;;;;;;24.85;21.95;;;9.40;99.90;;;;;;5051042;28;20485;-81
2022/04/06 02:31:29;;;;;;;27.60;22.40;;;9.50;99.90;;;;;;5050498;28;20379;-82
2022/04/06 02:33:55;;;;;;;24.38;21.77;;;9.50;99.90;;;;;;5049622;28;20427;-83
2022/04/06 02:36:20;;;;;;;24.40;21.83;;;9.50;99.90;;;;;;5050937;28;20368;-81
2022/04/06 02:38:47;;;;;;;24.53;21.90;;;9.50;99.90;;;;;;5050343;28;20380;-82
2022/04/06 02:41:13;;;;;;;25.10;22.05;;;9.50;99.90;;;;;;5050921;28;20896;-83
2022/04/06 02:43:39;;;;;;;24.48;21.95;;;9.50;99.90;;;;;;5050685;28;20738;-83
2022/04/06 02:46:05;;;;;;;25.58;22.35;;;9.40;99.90;;;;;;5054336;28;20489;-83
2022/04/06 02:48:31;;;;;;;26.57;22.47;;;9.40;99.90;;;;;;5053286;28;20835;-83
2022/04/06 02:50:56;;;;;;;24.60;22.00;;;9.30;99.90;;;;;;5053158;28;20951;-83
2022/04/06 02:53:22;;;;;;;24.92;22.23;;;9.50;99.90;;;;;;5054310;28;20411;-83
2022/04/06 02:55:48;;;;;;;25.13;22.17;;;9.50;99.90;;;;;;5054127;28;20392;-83
2022/04/06 02:58:15;;;;;;;25.33;22.25;;;9.50;99.90;;;;;;5055045;28;20378;-81
2022/04/06 03:00:40;;;;;;;24.80;22.17;;;9.50;99.90;;;;;;5054986;28;20378;-84
2022/04/06 03:03:06;;;;;;;24.58;22.00;;;9.50;99.90;;;;;;5053121;28;20427;-82
2022/04/06 03:05:32;;;;;;;23.00;20.52;;;9.50;99.90;;;;;;5052269;28;20553;-82
2022/04/06 03:07:58;;;;;;;23.85;21.25;;;9.50;99.90;;;;;;5053940;28;20806;-83
2022/04/06 03:10:23;;;;;;;23.55;21.08;;;9.50;99.90;;;;;;5053373;28;20380;-83
2022/04/06 03:12:49;;;;;;;23.70;21.13;;;9.50;99.90;;;;;;5054228;28;20458;-85
2022/04/06 03:15:14;;;;;;;23.42;20.58;;;9.60;99.90;;;;;;5052255;28;20399;-83
2022/04/06 03:17:41;;;;;;;23.17;20.75;;;9.50;99.90;;;;;;5052704;28;20719;-83
2022/04/06 03:20:08;;;;;;;23.05;20.13;;;9.60;99.90;;;;;;5053722;28;20411;-84
2022/04/06 03:22:34;;;;;;;22.40;19.83;;;9.60;99.90;;;;;;5054571;28;20454;-83
2022/04/06 03:25:00;;;;;;;22.87;19.97;;;9.50;99.90;;;;;;5054274;28;20549;-83
2022/04/06 03:27:25;;;;;;;23.80;19.83;;;9.50;99.90;;;;;;5054569;28;20862;-83
2022/04/06 03:29:51;;;;;;;21.95;19.02;;;9.60;99.90;;;;;;5053178;28;20895;-82
2022/04/06 03:32:16;;;;;;;23.40;18.50;;;9.60;99.90;;;;;;5053161;28;20379;-84
2022/04/06 03:34:42;;;;;;;20.58;18.25;;;9.50;99.90;;;;;;5054203;28;20367;-83
2022/04/06 03:37:08;;;;;;;20.88;17.92;;;9.60;99.90;;;;;;5053895;28;20738;-83
2022/04/06 03:39:33;;;;;;;20.97;18.07;;;9.60;99.90;;;;;;5053042;28;20382;-82
2022/04/06 03:41:59;;;;;;;20.17;17.80;;;9.60;99.90;;;;;;5053710;28;20488;-83
2022/04/06 03:44:25;;;;;;;20.05;17.77;;;9.50;99.90;;;;;;5052032;28;20407;-81
2022/04/06 03:46:50;;;;;;;20.85;17.77;;;9.60;99.90;;;;;;5053990;28;20383;-83
2022/04/06 03:49:16;;;;;;;21.30;17.43;;;9.50;99.90;;;;;;5053242;28;20916;-83
2022/04/06 03:51:43;;;;;;;21.63;17.33;;;9.50;99.90;;;;;;5053067;28;20836;-82
2022/04/06 03:54:08;;;;;;;20.88;17.13;;;9.50;99.90;;;;;;5052182;28;20376;-81
2022/04/06 03:56:34;;;;;;;22.27;17.02;;;9.50;99.90;;;;;;5051193;28;20749;-83
2022/04/06 03:59:00;;;;;;;19.70;17.43;;;9.50;99.90;;;;;;5052507;28;20395;-82
2022/04/06 04:01:28;;;;;;;19.03;16.00;;;9.40;99.90;;;;;;5051261;28;20387;-83
2022/04/06 04:03:53;;;;;;;18.95;16.00;;;9.50;99.90;;;;;;5050942;28;20437;-82
2022/04/06 04:06:19;;;;;;;17.88;15.98;;;9.60;99.90;;;;;;5050744;28;20404;-83
2022/04/06 04:08:45;;;;;;;17.95;15.73;;;9.50;99.90;;;;;;5052790;28;20376;-84
2022/04/06 04:11:10;;;;;;;17.07;15.30;;;9.80;99.90;;;;;;5052071;28;20372;-82
2022/04/06 04:13:36;;;;;;;17.13;15.30;;;9.80;99.90;;;;;;5051064;28;20947;-82
2022/04/06 04:16:02;;;;;;;20.00;15.77;;;9.70;99.90;;;;;;5050641;28;20878;-83
2022/04/06 04:18:27;;;;;;;21.13;16.53;;;9.50;99.90;;;;;;5052180;28;20383;-82
2022/04/06 04:21:32;;;;;;;20.43;16.27;;;9.50;99.90;;;;;;5052438;28;20415;-83
2022/04/06 04:23:38;;;;;;;17.83;15.98;;;9.60;99.90;;;;;;5052256;28;20396;-84
2022/04/06 04:26:04;;;;;;;18.52;16.10;;;9.50;99.90;;;;;;5050567;28;20403;-81
2022/04/06 04:28:30;;;;;;;20.97;16.80;;;9.60;99.90;;;;;;5051790;28;20504;-82
2022/04/06 04:30:55;;;;;;;20.92;17.08;;;9.50;99.90;;;;;;5051609;28;20392;-83
2022/04/06 04:33:21;;;;;;;21.80;17.42;;;9.80;99.90;;;;;;5051800;28;20437;-82
2022/04/06 04:35:47;;;;;;;19.80;17.70;;;9.40;99.90;;;;;;5051666;28;20372;-82
2022/04/06 04:38:13;;;;;;;20.77;17.80;;;9.50;99.90;;;;;;5050787;28;20728;-82
2022/04/06 04:40:39;;;;;;;20.48;18.38;;;9.50;99.90;;;;;;5052300;28;20410;-81
2022/04/06 04:43:04;;;;;;;23.43;19.63;;;9.50;99.90;;;;;;5057329;28;20388;-83
2022/04/06 04:45:30;;;;;;;21.42;18.27;;;9.50;99.90;;;;;;5057470;28;20418;-82
2022/04/06 04:47:57;;;;;;;24.35;19.75;;;9.50;99.90;;;;;;5055032;28;20433;-81
2022/04/06 04:50:23;;;;;;;21.27;18.98;;;9.40;99.90;;;;;;5050579;28;20750;-82
2022/04/06 04:52:49;;;;;;;21.55;19.20;;;9.40;99.90;;;;;;5051759;28;20372;-82
2022/04/06 04:55:14;;;;;;;24.55;18.75;;;9.90;99.90;;;;;;5051284;28;20470;-83
2022/04/06 04:57:40;;;;;;;24.53;18.17;;;9.40;99.90;;;;;;5051052;28;20467;-83
2022/04/06 05:00:08;;;;;;;22.60;18.73;;;9.60;99.90;;;;;;5051426;28;20425;-82
2022/04/06 05:02:34;;;;;;;21.40;17.85;;;9.40;99.90;;;;;;5050865;28;20392;-83
2022/04/06 05:05:00;;;;;;;21.65;18.65;;;9.30;99.90;;;;;;5049897;28;20465;-82
2022/04/06 05:07:25;;;;;;;24.23;17.67;;;9.40;99.90;;;;;;5050948;28;20909;-83
2022/04/06 05:09:51;;;;;;;20.83;17.38;;;9.40;99.90;;;;;;5043306;28;20742;-82
2022/04/06 05:12:17;;;;;;;22.50;17.87;;;9.50;99.90;;;;;;5043224;28;20884;-82
2022/04/06 05:14:42;;;;;;;19.93;17.03;;;9.50;99.90;;;;;;5047482;28;20457;-82
2022/04/06 05:17:08;;;;;;;19.85;16.70;;;9.40;99.90;;;;;;5040008;28;20369;-82
2022/04/06 05:19:34;;;;;;;19.73;16.73;;;9.60;99.90;;;;;;5041199;28;20400;-82
2022/04/06 05:21:59;;;;;;;19.47;17.17;;;9.60;99.90;;;;;;5041967;28;20385;-83
2022/04/06 05:24:26;;;;;;;20.27;16.27;;;10.00;99.90;;;;;;5038866;28;20405;-83
2022/04/06 05:26:52;;;;;;;20.25;16.50;;;9.60;99.90;;;;;;5045861;28;20401;-84
2022/04/06 05:29:17;;;;;;;20.52;15.68;;;10.20;99.90;;;;;;5042978;28;20387;-81
2022/04/06 05:31:43;;;;;;;19.33;15.83;;;9.80;99.90;;;;;;5040010;28;20813;-82
2022/04/06 05:34:08;;;;;;;18.50;16.17;;;9.90;99.90;;;;;;5039328;28;20374;-83
2022/04/06 05:36:34;;;;;;;20.42;16.52;;;9.90;99.90;;;;;;5040404;28;20368;-82
2022/04/06 05:39:00;;;;;;;19.83;16.47;;;9.80;99.90;;;;;;5040522;28;20405;-84
2022/04/06 05:41:26;;;;;;;21.90;17.10;;;9.90;99.90;;;;;;5037736;28;20391;-82
2022/04/06 05:43:52;;;;;;;18.95;16.95;;;10.00;99.90;;;;;;5041146;28;20474;-82
2022/04/06 05:46:18;;;;;;;20.35;17.48;;;10.00;99.90;;;;;;5039842;28;20567;-82
2022/04/06 05:48:43;;;;;;;22.50;17.92;;;9.90;99.90;;;;;;5039595;28;20864;-83
2022/04/06 05:51:09;;;;;;;21.50;17.30;;;9.90;99.90;;;;;;5039911;28;20745;-83
2022/04/06 05:53:34;;;;;;;19.03;17.03;;;9.80;99.90;;;;;;5039556;28;20923;-83
2022/04/06 05:56:00;;;;;;;20.95;16.75;;;9.90;99.90;;;;;;5040238;28;20385;-82
2022/04/06 05:58:25;;;;;;;20.77;16.53;;;9.80;99.90;;;;;;5038846;28;20868;-83
2022/04/06 06:00:52;;;;;;;18.35;15.90;;;9.90;99.90;;;;;;5041629;28;20470;-84
2022/04/06 06:03:18;;;;;;;21.87;17.20;;;9.90;99.90;;;;;;5040500;28;20373;-84
2022/04/06 06:05:43;;;;;;;17.73;15.90;;;9.90;99.90;;;;;;5041533;28;20538;-83
2022/04/06 06:08:09;;;;;;;19.73;15.85;;;10.00;99.90;;;;;;5037627;28;20397;-83
2022/04/06 06:10:35;;;;;;;21.33;15.52;;;10.10;99.90;;;;;;5038805;28;20376;-84
2022/04/06 06:13:00;;;;;;;18.67;15.60;;;10.20;99.90;;;;;;5040163;28;21082;-84
2022/04/06 06:15:26;;;;;;;22.27;17.67;;;10.20;99.90;;;;;;5036274;28;20943;-83
2022/04/06 06:17:53;;;;;;;23.30;19.05;;;;;;;;;;5039395;28;20391;-85
2022/04/06 06:20:19;;;;;;;22.60;19.35;;;10.20;99.90;;;;;;5041353;28;20764;-83
2022/04/06 06:22:44;;;;;;;25.73;20.03;;;10.20;99.90;;;;;;5042255;28;21192;-82
2022/04/06 06:25:10;;;;;;;25.13;20.63;;;10.40;99.90;;;;;;5042087;28;20424;-83
2022/04/06 06:27:40;;;;;;;28.35;21.98;;;10.40;99.90;;;;;;5043570;28;20430;-84
2022/04/06 06:30:07;;;;;;;27.27;21.87;;;10.50;99.90;;;;;;5043978;28;20383;-84
2022/04/06 06:32:33;;;;;;;28.08;21.98;;;10.50;99.90;;;;;;5045425;28;20871;-83
2022/04/06 06:34:59;;;;;;;26.73;22.08;;;10.60;99.90;;;;;;5043579;28;20426;-83
2022/04/06 06:37:24;;;;;;;30.77;23.50;;;10.70;99.90;;;;;;5045309;28;20372;-83
2022/04/06 06:39:52;;;;;;;29.10;24.63;;;10.70;99.90;;;;;;5057173;28;20375;-83
2022/04/06 06:42:18;;;;;;;31.88;24.98;;;10.60;99.90;;;;;;5046461;28;20423;-83
2022/04/06 06:44:43;;;;;;;31.98;25.17;;;10.60;99.90;;;;;;5052408;28;20434;-84
2022/04/06 06:47:09;;;;;;;30.80;25.47;;;10.60;99.90;;;;;;5042826;28;20888;-83
2022/04/06 06:49:35;;;;;;;32.90;26.35;;;10.60;99.90;;;;;;5045389;28;20477;-84
2022/04/06 06:52:00;;;;;;;32.88;26.50;;;10.60;99.90;;;;;;5045002;28;20372;-83
2022/04/06 06:54:26;;;;;;;34.40;28.23;;;;;;;;;;5045108;28;20773;-81
2022/04/06 06:56:52;;;;;;;33.37;28.00;;;;;;;;;;5044276;28;20442;-83
2022/04/06 06:59:18;;;;;;;33.00;26.90;;;;;;;;;;5045657;28;20374;-83
2022/04/06 07:01:44;;;;;;;31.47;25.83;;;;;;;;;;5045822;28;20920;-82
2022/04/06 07:04:10;;;;;;;32.43;26.93;;;;;;;;;;5053602;28;20426;-82
2022/04/06 07:06:36;;;;;;;32.83;25.10;;;;;;;;;;5052159;28;20394;-82
2022/04/06 07:09:02;;;;;;;31.70;24.63;;;;;;;;;;5053170;28;20384;-83
2022/04/06 07:11:28;;;;;;;30.70;24.55;;;;;;;;;;5050980;28;20384;-82
2022/04/06 07:13:54;;;;;;;29.20;23.67;;;;;;;;;;5049619;28;20874;-83
2022/04/06 07:16:20;;;;;;;29.95;25.63;;;;;;;;;;5048197;28;20456;-83
2022/04/06 07:18:46;;;;;;;30.48;23.35;;;;;;;;;;5051506;28;20440;-82
2022/04/06 07:21:12;;;;;;;28.02;21.70;;;;;;;;;;5052139;28;20379;-82
2022/04/06 07:23:40;;;;;;;27.55;21.58;;;;;;;;;;5051340;28;20917;-83
2022/04/06 07:26:06;;;;;;;27.60;21.50;;;;;;;;;;5048681;28;20424;-84
2022/04/06 07:28:32;;;;;;;26.92;20.70;;;;;;;;;;5046966;28;20488;-83
2022/04/06 07:31:02;;;;;;;25.85;19.83;;;;;;;;;;5046819;28;20392;-84
2022/04/06 07:33:28;;;;;;;25.27;19.07;;;;;;;;;;5052977;28;20433;-84
2022/04/06 07:35:54;;;;;;;23.30;18.67;;;;;;;;;;5049045;28;20522;-84
2022/04/06 07:38:20;;;;;;;25.08;18.88;;;;;;;;;;5051510;28;20468;-83
2022/04/06 07:40:46;;;;;;;25.27;18.83;;;;;;;;;;5054904;28;20431;-84
2022/04/06 07:43:12;;;;;;;25.63;18.45;;;;;;;;;;5056112;28;20414;-83
2022/04/06 07:45:40;;;;;;;26.63;18.25;;;;;;;;;;5053883;28;20392;-84
2022/04/06 07:48:06;;;;;;;25.63;17.20;;;;;;;;;;5051902;28;20557;-84
2022/04/06 07:50:32;;;;;;;23.10;17.17;;;;;;;;;;5054613;28;20459;-83
2022/04/06 07:52:58;;;;;;;21.55;15.68;;;;;;;;;;5049417;28;20378;-83
2022/04/06 07:55:24;;;;;;;22.98;16.00;;;;;;;;;;5053424;28;20377;-83
2022/04/06 07:57:50;;;;;;;19.65;15.45;;;;;;;;;;5060936;28;20416;-85
2022/04/06 08:00:17;;;;;;;24.13;16.25;;;;;;;;;;5053993;28;20445;-84
2022/04/06 08:02:43;;;;;;;22.92;17.00;;;;;;;;;;5055812;28;20546;-82
2022/04/06 08:05:10;;;;;;;22.48;15.52;;;;;;;;;;5058853;28;20404;-83
2022/04/06 08:07:39;;;;;;;20.98;15.88;;;;;;;;;;5052398;28;20391;-83
2022/04/06 08:10:07;;;;;;;22.40;15.73;;;;;;;;;;5048128;28;20409;-81
2022/04/06 08:12:33;;;;;;;20.75;16.00;;;;;;;;;;5048320;28;20420;-83
2022/04/06 08:15:01;;;;;;;21.42;14.07;;;;;;;;;;5052490;28;20435;-82
2022/04/06 08:17:30;;;;;;;20.20;13.95;;;;;;;;;;5047815;28;20398;-82
2022/04/06 08:19:55;;;;;;;18.08;13.80;;;12.80;99.90;;;;;;5054410;28;20387;-83
2022/04/06 08:22:21;;;;;;;17.95;13.20;;;13.10;99.90;;;;;;5054011;28;20387;-83
2022/04/06 08:24:47;;;;;;;17.30;12.90;;;12.90;99.90;;;;;;5053714;28;20392;-82
2022/04/06 08:27:14;;;;;;;18.87;13.67;;;12.70;99.90;;;;;;5054169;28;20415;-82
2022/04/06 08:29:39;;;;;;;17.60;13.15;;;12.70;99.90;;;;;;5050269;28;20390;-83
2022/04/06 08:32:05;;;;;;;17.10;13.38;;;12.40;99.90;;;;;;5046185;28;20506;-84
2022/04/06 08:34:31;;;;;;;18.35;13.50;;;12.40;99.90;;;;;;5045522;28;20455;-83
2022/04/06 08:36:57;;;;;;;19.07;13.00;;;12.20;99.90;;;;;;5046514;28;20384;-83
2022/04/06 08:39:22;;;;;;;18.33;13.33;;;12.20;99.90;;;;;;5047449;28;20864;-83
2022/04/06 08:41:48;;;;;;;15.60;11.43;;;12.30;99.90;;;;;;5040366;28;21039;-83
2022/04/06 08:44:16;;;;;;;16.55;12.00;;;12.40;99.90;;;;;;5046058;28;20448;-83
2022/04/06 08:46:45;;;;;;;16.35;11.80;;;12.50;99.90;;;;;;5043012;28;20390;-84
2022/04/06 08:49:11;;;;;;;17.10;11.27;;;12.70;99.90;;;;;;5042710;28;20506;-83
2022/04/06 08:51:40;;;;;;;14.48;10.25;;;12.90;99.90;;;;;;5048293;28;20442;-84
2022/04/06 08:54:06;;;;;;;16.48;10.43;;;13.10;99.90;;;;;;5042840;28;20469;-84
2022/04/06 08:56:32;;;;;;;14.57;10.10;;;13.30;99.90;;;;;;5041515;28;20755;-82
2022/04/06 08:59:00;;;;;;;16.03;10.80;;;13.30;99.90;;;;;;5047204;28;20534;-83
2022/04/06 09:01:28;;;;;;;14.55;10.18;;;13.30;99.90;;;;;;5048271;28;20378;-82
2022/04/06 09:03:55;;;;;;;15.13;10.50;;;13.20;99.90;;;;;;5044974;28;20893;-84
2022/04/06 09:06:20;;;;;;;16.38;10.65;;;13.00;99.90;;;;;;5047496;28;20416;-83
2022/04/06 09:08:47;;;;;;;14.88;10.88;;;12.80;99.90;;;;;;5043100;28;20396;-84
2022/04/06 09:11:20;;;;;;;15.10;10.55;;;12.70;99.90;;;;;;5047543;28;20406;-84
2022/04/06 09:13:47;;;;;;;13.68;10.25;;;12.70;99.90;;;;;;5045255;28;20423;-83
2022/04/06 09:16:15;;;;;;;16.48;11.15;;;12.80;99.90;;;;;;5045333;28;20389;-83
2022/04/06 09:18:45;;;;;;;13.55;10.55;;;12.60;99.90;;;;;;5044821;28;20406;-84
2022/04/06 09:21:14;;;;;;;16.15;10.93;;;12.80;99.90;;;;;;5044483;28;20372;-84
2022/04/06 09:23:40;;;;;;;15.20;10.30;;;12.90;99.90;;;;;;5040793;28;20396;-83
2022/04/06 09:26:07;;;;;;;19.98;11.40;;;13.00;99.90;;;;;;5044527;28;20399;-83
2022/04/06 09:28:38;;;;;;;15.05;11.30;;;13.10;99.90;;;;;;5043267;28;20393;-82
2022/04/06 09:31:03;;;;;;;15.23;10.00;;;13.30;99.90;;;;;;5045004;28;20405;-83
2022/04/06 09:33:29;;;;;;;13.60;10.82;;;13.50;99.90;;;;;;5044979;28;20394;-83
2022/04/06 09:35:57;;;;;;;15.80;10.70;;;13.50;99.90;;;;;;5044842;28;20391;-83
2022/04/06 09:38:26;;;;;;;17.05;10.75;;;13.60;99.90;;;;;;5043303;28;20517;-84
2022/04/06 09:41:02;;;;;;;14.25;10.82;;;13.70;99.90;;;;;;5041146;28;20433;-82
2022/04/06 09:43:30;;;;;;;15.13;11.18;;;13.80;99.90;;;;;;5040652;28;20397;-83
2022/04/06 09:49:00;;;;;;;12.40;9.85;;;13.60;99.90;;;;;;5039413;28;20396;-84
2022/04/06 09:51:26;;;;;;;14.85;11.00;;;13.70;99.90;;;;;;5041861;28;20448;-84
2022/04/06 09:53:53;;;;;;;12.55;10.02;;;13.70;99.90;;;;;;5039854;28;20470;-84
2022/04/06 09:56:20;;;;;;;14.60;10.65;;;14.00;99.90;;;;;;5041610;28;20377;-84
2022/04/06 09:58:46;;;;;;;13.93;11.18;;;14.00;99.90;;;;;;5045077;28;20538;-83
2022/04/06 10:01:16;;;;;;;16.02;10.95;;;13.80;99.90;;;;;;5041055;28;20389;-83
2022/04/06 10:03:49;;;;;;;15.07;10.63;;;13.50;99.90;;;;;;5039788;28;20415;-84
2022/04/06 10:06:14;;;;;;;16.80;10.80;;;13.40;99.90;;;;;;5040631;28;20411;-84
2022/04/06 10:08:41;;;;;;;14.05;10.15;;;13.50;99.90;;;;;;5038877;28;20377;-85
2022/04/06 10:11:07;;;;;;;13.48;10.40;;;13.70;99.90;;;;;;5040881;28;20395;-84
2022/04/06 10:13:33;;;;;;;15.68;10.57;;;14.10;99.90;;;;;;5042585;28;20396;-84
2022/04/06 10:15:59;;;;;;;13.82;10.57;;;14.40;99.90;;;;;;5038591;28;20758;-85
2022/04/06 10:18:27;;;;;;;13.68;10.68;;;14.30;99.90;;;;;;5040718;28;20389;-83
2022/04/06 10:21:36;;;;;;;13.75;11.20;;;14.20;99.90;;;;;;5042530;28;20380;-84
2022/04/06 10:24:33;;;;;;;13.63;10.68;;;13.90;99.90;;;;;;5049489;28;20384;-84
2022/04/06 10:27:23;;;;;;;13.20;10.40;;;13.70;99.90;;;;;;5050040;28;20390;-83
2022/04/06 10:30:17;;;;;;;13.98;9.52;;;13.90;99.90;;;;;;5083084;28;20394;-83
2022/04/06 10:32:52;;;;;;;12.30;9.37;;;14.10;99.90;;;;;;5050549;28;20439;-84
2022/04/06 10:35:37;;;;;;;15.52;9.95;;;14.20;99.90;;;;;;5048745;28;20406;-83
2022/04/06 10:38:03;;;;;;;13.40;9.65;;;14.50;99.90;;;;;;5042420;28;20379;-83
2022/04/06 10:40:55;;;;;;;13.40;9.55;;;14.40;99.90;;;;;;5046099;28;20390;-83
2022/04/06 10:43:56;;;;;;;12.50;8.83;;;14.20;99.90;;;;;;5044324;28;20392;-84
2022/04/06 10:46:58;;;;;;;12.73;9.48;;;14.10;99.90;;;;;;5048285;28;20502;-84
2022/04/06 10:49:27;;;;;;;13.35;8.88;;;14.00;99.90;;;;;;4994762;28;20501;-83
2022/04/06 10:51:58;;;;;;;12.65;9.13;;;14.00;99.90;;;;;;5012747;28;20395;-84
2022/04/06 10:54:27;;;;;;;12.00;9.50;;;13.80;99.90;;;;;;5039435;28;20453;-82
2022/04/06 10:56:55;;;;;;;13.30;9.50;;;13.70;99.90;;;;;;5039125;28;20400;-83
2022/04/06 10:59:25;;;;;;;13.98;9.52;;;13.50;99.90;;;;;;5046334;28;20466;-82
2022/04/06 11:02:28;;;;;;;15.20;10.40;;;13.30;99.90;;;;;;5044585;28;20389;-83
2022/04/06 11:04:53;;;;;;;14.35;10.00;;;13.20;99.90;;;;;;5017729;28;20473;-83
2022/04/06 11:10:25;;;;;;;14.38;9.90;;;13.20;99.90;;;;;;5045673;28;20393;-82
2022/04/06 11:13:12;;;;;;;14.65;10.35;;;13.10;99.90;;;;;;5043632;28;20792;-82
2022/04/06 11:15:43;;;;;;;12.95;10.20;;;12.90;99.90;;;;;;5047073;28;20413;-83
2022/04/06 11:18:43;;;;;;;14.10;10.63;;;12.80;99.90;;;;;;5044966;28;20397;-83
2022/04/06 11:21:09;;;;;;;12.88;11.15;;;12.90;99.90;;;;;;5045246;28;20389;-83
2022/04/06 11:23:34;;;;;;;13.03;10.63;;;12.70;99.90;;;;;;5049826;28;20377;-84
2022/04/06 11:26:00;;;;;;;14.97;11.67;;;12.70;99.90;;;;;;5049932;28;20491;-83
2022/04/06 11:28:27;;;;;;;17.15;11.82;;;12.60;99.90;;;;;;5048756;28;20882;-83
2022/04/06 11:30:53;;;;;;;16.05;11.80;;;12.50;99.90;;;;;;5045298;28;20423;-84
2022/04/06 11:33:19;;;;;;;16.60;12.63;;;12.40;99.90;;;;;;5043803;28;20740;-82
2022/04/06 11:35:44;;;;;;;16.20;12.63;;;12.40;99.90;;;;;;5043513;28;20445;-83
2022/04/06 11:38:13;;;;;;;15.93;13.00;;;12.40;99.90;;;;;;5042539;28;20451;-83
2022/04/06 11:40:42;;;;;;;14.70;12.55;;;12.50;99.90;;;;;;5044421;28;20382;-83
2022/04/06 11:43:08;;;;;;;15.98;12.80;;;12.40;99.90;;;;;;5049914;28;20471;-82
2022/04/06 11:45:44;;;;;;;18.25;13.60;;;12.30;99.90;;;;;;5046500;28;20828;-83
2022/04/06 11:48:15;;;;;;;13.93;11.07;;;12.20;99.90;;;;;;5041996;28;20400;-83
2022/04/06 11:50:43;;;;;;;15.15;12.38;;;12.30;99.90;;;;;;5041317;28;20413;-83
2022/04/06 11:53:15;;;;;;;13.95;12.05;;;12.30;99.90;;;;;;5040046;28;20390;-84
2022/04/06 11:55:54;;;;;;;16.63;11.45;;;12.20;99.90;;;;;;5044948;28;20388;-83
2022/04/06 11:58:36;;;;;;;15.75;12.20;;;12.20;99.90;;;;;;5042669;28;20388;-83
2022/04/06 12:01:17;;;;;;;14.13;12.10;;;12.20;99.90;;;;;;5039903;28;20791;-83
2022/04/06 12:03:45;;;;;;;15.88;11.30;;;12.20;99.90;;;;;;5042680;28;20425;-83
2022/04/06 12:06:14;;;;;;;14.63;10.95;;;12.30;99.90;;;;;;5041935;28;20417;-83
2022/04/06 12:08:45;;;;;;;14.10;10.90;;;12.20;99.90;;;;;;5039459;28;20417;-83
2022/04/06 12:11:11;;;;;;;13.77;10.23;;;12.10;99.90;;;;;;5040618;28;20852;-83
2022/04/06 12:13:39;;;;;;;14.18;9.90;;;12.40;99.90;;;;;;5040847;28;20451;-83
2022/04/06 12:16:06;;;;;;;15.70;9.75;;;12.50;99.90;;;;;;5038920;28;20389;-83
2022/04/06 12:18:33;;;;;;;11.85;8.85;;;12.50;99.90;;;;;;5039051;28;20394;-82
2022/04/06 12:20:59;;;;;;;12.45;8.95;;;12.60;99.90;;;;;;5040317;28;20426;-83
2022/04/06 12:23:26;;;;;;;12.25;8.75;;;13.40;99.90;;;;;;5039590;28;20381;-83
2022/04/06 12:25:56;;;;;;;14.13;8.77;;;13.20;99.90;;;;;;5040232;28;20402;-83
2022/04/06 12:28:24;;;;;;;11.98;8.57;;;13.50;99.90;;;;;;5040239;28;20746;-83
2022/04/06 12:30:53;;;;;;;10.18;8.57;;;13.60;99.90;;;;;;5041498;28;20852;-84
2022/04/06 12:33:45;;;;;;;11.20;8.60;;;13.70;99.90;;;;;;5038542;28;20880;-82
2022/04/06 12:36:16;;;;;;;14.52;8.88;;;13.60;99.90;;;;;;5041151;28;20394;-85
2022/04/06 12:38:58;;;;;;;12.65;8.77;;;13.30;99.90;;;;;;5038689;28;20439;-83
2022/04/06 12:41:25;;;;;;;11.57;9.13;;;13.30;99.90;;;;;;5038821;28;20439;-83
2022/04/06 12:43:51;;;;;;;10.48;8.07;;;13.30;99.90;;;;;;5042707;28;20396;-83
2022/04/06 12:46:38;;;;;;;10.27;7.10;;;13.30;99.90;;;;;;5040076;28;20494;-83
2022/04/06 12:49:29;;;;;;;11.27;6.90;;;13.30;99.90;;;;;;5039039;28;20459;-83
2022/04/06 12:52:22;;;;;;;9.85;6.53;;;13.30;99.90;;;;;;5040168;28;20404;-82
2022/04/06 12:54:50;;;;;;;10.43;6.82;;;13.20;99.90;;;;;;5038949;28;20389;-83
2022/04/06 12:57:28;;;;;;;8.25;6.30;;;13.00;99.90;;;;;;5042802;28;20405;-83
2022/04/06 12:59:55;;;;;;;10.43;6.30;;;12.90;99.90;;;;;;5041551;28;20877;-82